Time;durP1;ratioP1;P1;durP2;ratioP2;P2;SDS_P1;SDS_P2;PMS_P1;PMS_P2;Temp;Humidity;BMP_temperature;BMP_pressure;BME280_temperature;BME280_humidity;BME280_pressure;Samples;Min_cycle;Max_cycle;Signal;HPM_P1;HPM_P2
2022/02/16 00:02:23;;;;;;;3.30;1.70;;;5.70;99.90;;;;;;5093617;28;20444;-66
2022/02/16 00:04:49;;;;;;;5.03;2.23;;;5.70;99.90;;;;;;5093628;28;20503;-66
2022/02/16 00:07:16;;;;;;;3.30;1.90;;;5.70;99.90;;;;;;5094574;28;20948;-65
2022/02/16 00:09:43;;;;;;;4.77;1.70;;;5.70;99.90;;;;;;5097194;28;20549;-66
2022/02/16 00:12:10;;;;;;;3.30;1.23;;;5.70;99.90;;;;;;5097693;28;20511;-66
2022/02/16 00:14:37;;;;;;;4.63;1.50;;;5.70;99.90;;;;;;5097343;28;20633;-66
2022/02/16 00:17:04;;;;;;;3.07;1.50;;;5.80;99.90;;;;;;5095372;28;20537;-66
2022/02/16 00:19:32;;;;;;;2.27;1.43;;;5.70;99.90;;;;;;5095088;28;21002;-66
2022/02/16 00:21:59;;;;;;;3.30;1.50;;;5.80;99.90;;;;;;5095236;28;20446;-66
2022/02/16 00:24:26;;;;;;;3.53;1.70;;;5.70;99.90;;;;;;5094885;28;20438;-66
2022/02/16 00:26:53;;;;;;;4.80;2.03;;;5.70;99.90;;;;;;5094774;28;20472;-66
2022/02/16 00:29:20;;;;;;;5.33;1.47;;;5.70;99.90;;;;;;5094162;28;20480;-65
2022/02/16 00:31:46;;;;;;;3.27;1.30;;;5.70;99.90;;;;;;5095447;28;20450;-66
2022/02/16 00:34:13;;;;;;;2.70;1.70;;;5.70;99.90;;;;;;5094180;28;20470;-66
2022/02/16 00:36:42;;;;;;;6.03;1.87;;;5.70;99.90;;;;;;5094129;28;20474;-66
2022/02/16 00:39:09;;;;;;;3.33;1.17;;;5.80;99.90;;;;;;5093300;28;20497;-67
2022/02/16 00:41:35;;;;;;;3.13;1.27;;;5.80;99.90;;;;;;5094396;28;20474;-66
2022/02/16 00:44:02;;;;;;;3.53;1.20;;;5.80;99.90;;;;;;5094668;28;20446;-66
2022/02/16 00:46:29;;;;;;;2.50;1.60;;;5.80;99.90;;;;;;5094483;28;20452;-66
2022/02/16 00:48:56;;;;;;;4.13;1.43;;;5.80;99.90;;;;;;5094360;28;20488;-66
2022/02/16 00:51:23;;;;;;;4.37;1.70;;;5.90;99.90;;;;;;5094398;28;20458;-67
2022/02/16 00:53:51;;;;;;;2.90;1.30;;;5.90;99.90;;;;;;5093529;28;20509;-66
2022/02/16 00:56:18;;;;;;;4.73;1.73;;;5.90;99.90;;;;;;5092946;28;20478;-66
2022/02/16 00:58:45;;;;;;;3.37;1.60;;;5.90;99.90;;;;;;5092479;28;20576;-66
2022/02/16 01:01:11;;;;;;;2.90;2.10;;;5.90;99.90;;;;;;5092715;28;20908;-66
2022/02/16 01:03:39;;;;;;;2.70;1.53;;;5.90;99.90;;;;;;5092350;28;20952;-66
2022/02/16 01:06:06;;;;;;;6.47;1.50;;;5.90;99.90;;;;;;5092398;28;20446;-66
2022/02/16 01:08:32;;;;;;;3.07;1.40;;;5.90;99.90;;;;;;5092061;28;20465;-65
2022/02/16 01:11:01;;;;;;;2.53;1.50;;;5.90;99.90;;;;;;5092089;28;20485;-66
2022/02/16 01:13:28;;;;;;;5.80;1.70;;;6.00;99.90;;;;;;5092484;28;20482;-65
2022/02/16 01:15:54;;;;;;;4.00;1.27;;;6.00;99.90;;;;;;5092001;28;20564;-65
2022/02/16 01:18:21;;;;;;;3.37;1.40;;;6.00;99.90;;;;;;5091788;28;20456;-66
2022/02/16 01:20:48;;;;;;;5.77;2.10;;;6.00;99.90;;;;;;5092182;28;20443;-65
2022/02/16 01:23:15;;;;;;;3.13;1.20;;;6.10;99.90;;;;;;5091943;28;21042;-65
2022/02/16 01:25:42;;;;;;;3.30;1.60;;;6.10;99.90;;;;;;5091942;28;20442;-65
2022/02/16 01:28:10;;;;;;;2.60;1.40;;;6.10;99.90;;;;;;5091188;28;20477;-65
2022/02/16 01:30:37;;;;;;;2.87;1.40;;;6.20;99.90;;;;;;5091188;28;20469;-66
2022/02/16 01:33:04;;;;;;;3.53;1.73;;;6.20;99.90;;;;;;5091775;28;20453;-66
2022/02/16 01:35:31;;;;;;;2.73;1.43;;;6.30;99.90;;;;;;5091761;28;20478;-65
2022/02/16 01:37:58;;;;;;;3.00;1.40;;;6.30;99.90;;;;;;5091465;28;20454;-66
2022/02/16 01:40:25;;;;;;;3.70;1.40;;;6.30;99.90;;;;;;5091557;28;20462;-65
2022/02/16 01:42:52;;;;;;;4.70;1.30;;;6.30;99.90;;;;;;5091533;28;20457;-66
2022/02/16 01:45:26;;;;;;;2.93;1.33;;;6.30;99.90;;;;;;5091558;28;20446;-65
2022/02/16 01:47:53;;;;;;;3.70;1.50;;;6.30;99.90;;;;;;5091172;28;20441;-65
2022/02/16 01:50:20;;;;;;;3.10;1.10;;;6.40;99.90;;;;;;5091593;28;20568;-66
2022/02/16 01:52:48;;;;;;;3.00;1.40;;;6.40;99.90;;;;;;5091239;28;20461;-65
2022/02/16 01:55:16;;;;;;;3.23;1.27;;;6.50;99.90;;;;;;5091396;28;20484;-65
2022/02/16 01:57:44;;;;;;;2.30;1.07;;;6.50;99.90;;;;;;5091027;28;20454;-65
2022/02/16 02:00:11;;;;;;;3.40;1.40;;;6.50;99.90;;;;;;5091125;28;20833;-65
2022/02/16 02:02:40;;;;;;;5.03;1.57;;;6.50;99.90;;;;;;5091231;28;20448;-66
2022/02/16 02:05:07;;;;;;;4.50;1.73;;;6.60;99.90;;;;;;5091296;28;20434;-66
2022/02/16 02:07:36;;;;;;;3.20;1.20;;;6.60;99.90;;;;;;5090863;28;20462;-65
2022/02/16 02:10:04;;;;;;;7.13;1.63;;;6.60;99.90;;;;;;5091153;28;20489;-65
2022/02/16 02:12:31;;;;;;;3.00;1.33;;;6.70;99.90;;;;;;5091113;28;20457;-66
2022/02/16 02:14:58;;;;;;;3.53;1.50;;;6.70;99.90;;;;;;5090755;28;20484;-65
2022/02/16 02:17:25;;;;;;;4.43;1.63;;;6.70;99.90;;;;;;5090869;28;20477;-65
2022/02/16 02:19:53;;;;;;;2.43;1.20;;;6.70;99.90;;;;;;5091022;28;20462;-65
2022/02/16 02:22:21;;;;;;;3.50;1.50;;;6.70;99.90;;;;;;5091022;28;20859;-65
2022/02/16 02:24:48;;;;;;;2.93;1.20;;;6.70;99.90;;;;;;5091085;28;20448;-65
2022/02/16 02:27:15;;;;;;;3.00;1.57;;;6.60;99.90;;;;;;5090764;28;20843;-65
2022/02/16 02:29:42;;;;;;;4.63;1.77;;;6.60;99.90;;;;;;5091181;28;20903;-66
2022/02/16 02:32:09;;;;;;;5.30;2.33;;;6.60;99.90;;;;;;5091325;28;20443;-65
2022/02/16 02:34:36;;;;;;;6.73;2.00;;;6.60;99.90;;;;;;5091166;28;20857;-65
2022/02/16 02:37:03;;;;;;;5.63;1.57;;;6.60;99.90;;;;;;5090756;28;20446;-65
2022/02/16 02:39:31;;;;;;;3.87;1.50;;;6.50;99.90;;;;;;5090600;28;20474;-65
2022/02/16 02:41:58;;;;;;;2.63;1.20;;;6.50;99.90;;;;;;5090542;28;20925;-65
2022/02/16 02:44:25;;;;;;;4.03;1.43;;;6.50;99.90;;;;;;5090735;28;20448;-65
2022/02/16 02:46:53;;;;;;;2.93;1.13;;;6.50;99.90;;;;;;5090932;28;20461;-64
2022/02/16 02:49:20;;;;;;;4.20;2.47;;;6.50;99.90;;;;;;5090486;28;21110;-65
2022/02/16 02:51:47;;;;;;;2.17;1.00;;;6.50;99.90;;;;;;5090702;28;20525;-65
2022/02/16 02:54:14;;;;;;;2.20;1.10;;;6.50;99.90;;;;;;5090477;28;20956;-65
2022/02/16 02:56:43;;;;;;;3.27;1.50;;;6.50;99.90;;;;;;5090673;28;20450;-66
2022/02/16 02:59:09;;;;;;;5.20;1.80;;;6.50;99.90;;;;;;5090626;28;20477;-65
2022/02/16 03:01:39;;;;;;;4.63;1.10;;;6.50;99.90;;;;;;5090253;28;20446;-65
2022/02/16 03:04:06;;;;;;;4.20;1.47;;;6.50;99.90;;;;;;5090517;28;20446;-66
2022/02/16 03:06:33;;;;;;;4.73;1.70;;;6.50;99.90;;;;;;5090482;28;20453;-65
2022/02/16 03:09:00;;;;;;;3.47;1.40;;;6.50;99.90;;;;;;5089682;28;20963;-66
2022/02/16 03:11:26;;;;;;;2.70;1.20;;;6.50;99.90;;;;;;5090268;28;20442;-66
2022/02/16 03:13:54;;;;;;;2.90;1.20;;;6.50;99.90;;;;;;5090431;28;20965;-66
2022/02/16 03:16:21;;;;;;;4.07;1.33;;;6.60;99.90;;;;;;5090507;28;20474;-66
2022/02/16 03:18:48;;;;;;;4.23;1.20;;;6.60;99.90;;;;;;5089891;28;20474;-65
2022/02/16 03:21:15;;;;;;;2.93;1.07;;;6.60;99.90;;;;;;5090121;28;20446;-65
2022/02/16 03:23:42;;;;;;;2.43;1.23;;;6.60;99.90;;;;;;5090059;28;20452;-66
2022/02/16 03:26:10;;;;;;;3.77;1.63;;;6.70;99.90;;;;;;5090622;28;20460;-68
2022/02/16 03:28:37;;;;;;;2.90;1.40;;;6.70;99.90;;;;;;5089998;28;20466;-65
2022/02/16 03:31:05;;;;;;;1.60;0.70;;;6.70;99.90;;;;;;5090317;28;20442;-66
2022/02/16 03:33:32;;;;;;;2.53;1.10;;;6.80;99.90;;;;;;5090108;28;20445;-65
2022/02/16 03:35:59;;;;;;;4.30;1.33;;;6.80;99.90;;;;;;5089884;28;20477;-65
2022/02/16 03:38:25;;;;;;;2.53;1.00;;;6.80;99.90;;;;;;5090025;28;20456;-65
2022/02/16 03:40:53;;;;;;;3.53;1.20;;;6.80;99.90;;;;;;5092437;28;20537;-65
2022/02/16 03:43:20;;;;;;;3.23;0.97;;;6.80;99.90;;;;;;5090353;28;20454;-65
2022/02/16 03:45:47;;;;;;;2.20;1.20;;;6.80;99.90;;;;;;5090156;28;20449;-65
2022/02/16 03:48:15;;;;;;;1.80;0.90;;;6.80;99.90;;;;;;5089908;28;20446;-64
2022/02/16 03:50:42;;;;;;;3.43;1.23;;;6.80;99.90;;;;;;5091080;28;20446;-65
2022/02/16 03:53:09;;;;;;;4.40;1.17;;;6.80;99.90;;;;;;5092999;28;20450;-65
2022/02/16 03:55:36;;;;;;;1.87;0.80;;;6.80;99.90;;;;;;5094297;28;20474;-65
2022/02/16 03:58:03;;;;;;;2.33;0.87;;;6.80;99.90;;;;;;5094085;28;20883;-65
2022/02/16 04:00:30;;;;;;;2.30;1.00;;;6.80;99.90;;;;;;5093855;28;20869;-65
2022/02/16 04:02:56;;;;;;;4.13;0.90;;;6.80;99.90;;;;;;5093486;28;20879;-65
2022/02/16 04:05:24;;;;;;;1.93;0.87;;;6.80;99.90;;;;;;5093302;28;20446;-64
2022/02/16 04:07:51;;;;;;;2.27;0.90;;;6.80;99.90;;;;;;5093018;28;20979;-65
2022/02/16 04:10:18;;;;;;;2.13;1.00;;;6.80;99.90;;;;;;5093548;28;20466;-65
2022/02/16 04:12:45;;;;;;;3.10;1.23;;;6.80;99.90;;;;;;5093538;28;20950;-65
2022/02/16 04:15:14;;;;;;;2.00;1.00;;;6.90;99.90;;;;;;5093343;28;20481;-65
2022/02/16 04:17:41;;;;;;;2.13;0.90;;;6.90;99.90;;;;;;5092861;28;20551;-65
2022/02/16 04:20:08;;;;;;;2.67;1.00;;;6.80;99.90;;;;;;5093141;28;20476;-65
2022/02/16 04:22:41;;;;;;;2.17;0.90;;;6.90;99.90;;;;;;5093471;28;20456;-65
2022/02/16 04:25:09;;;;;;;3.00;1.10;;;6.90;99.90;;;;;;5093387;28;20844;-66
2022/02/16 04:27:36;;;;;;;3.17;1.07;;;6.90;99.90;;;;;;5093265;28;20449;-64
2022/02/16 04:30:03;;;;;;;5.40;1.20;;;6.90;99.90;;;;;;5093524;28;20470;-65
2022/02/16 04:32:30;;;;;;;2.60;0.93;;;6.90;99.90;;;;;;5093259;28;20886;-65
2022/02/16 04:34:57;;;;;;;3.20;0.83;;;7.00;99.90;;;;;;5093028;28;20453;-65
2022/02/16 04:37:23;;;;;;;2.40;1.07;;;7.00;99.90;;;;;;5093038;28;20544;-65
2022/02/16 04:39:52;;;;;;;2.60;1.00;;;7.10;99.90;;;;;;5093143;28;20561;-65
2022/02/16 04:42:18;;;;;;;2.57;0.90;;;7.10;99.90;;;;;;5092828;28;20545;-65
2022/02/16 04:44:45;;;;;;;2.20;1.00;;;7.10;99.90;;;;;;5092512;28;20449;-66
2022/02/16 04:47:12;;;;;;;1.77;0.80;;;7.10;99.90;;;;;;5092349;28;20442;-65
2022/02/16 04:49:39;;;;;;;2.43;0.77;;;7.20;99.90;;;;;;5092750;28;20466;-65
2022/02/16 04:52:07;;;;;;;2.43;0.80;;;7.10;99.90;;;;;;5092645;28;20792;-66
2022/02/16 04:54:35;;;;;;;3.73;1.37;;;7.20;99.90;;;;;;5092418;28;20458;-65
2022/02/16 04:57:03;;;;;;;2.10;0.73;;;7.20;99.90;;;;;;5092518;28;20496;-66
2022/02/16 04:59:30;;;;;;;2.10;0.70;;;7.20;99.90;;;;;;5092318;28;20497;-65
2022/02/16 05:01:57;;;;;;;2.60;0.80;;;7.20;99.90;;;;;;5092528;28;20461;-65
2022/02/16 05:04:24;;;;;;;1.90;0.90;;;7.20;99.90;;;;;;5092186;28;20575;-65
2022/02/16 05:06:50;;;;;;;1.90;0.87;;;7.20;99.90;;;;;;5092325;28;20533;-65
2022/02/16 05:09:17;;;;;;;4.57;0.90;;;7.20;99.90;;;;;;5091865;28;20468;-65
2022/02/16 05:11:44;;;;;;;3.83;1.00;;;7.20;99.90;;;;;;5092084;28;20952;-65
2022/02/16 05:14:12;;;;;;;3.70;1.37;;;7.20;99.90;;;;;;5092006;28;20454;-65
2022/02/16 05:16:39;;;;;;;1.83;0.93;;;7.20;99.90;;;;;;5092266;28;20576;-65
2022/02/16 05:19:06;;;;;;;2.67;1.10;;;7.20;99.90;;;;;;5091850;28;20474;-64
2022/02/16 05:21:33;;;;;;;1.60;0.80;;;7.20;99.90;;;;;;5091933;28;20455;-65
2022/02/16 05:24:00;;;;;;;1.60;0.73;;;7.30;99.90;;;;;;5091982;28;20446;-65
2022/02/16 05:26:27;;;;;;;2.87;0.90;;;7.20;99.90;;;;;;5092313;28;20438;-65
2022/02/16 05:28:54;;;;;;;1.70;0.70;;;7.20;99.90;;;;;;5091622;28;20906;-65
2022/02/16 05:31:22;;;;;;;4.70;0.90;;;7.20;99.90;;;;;;5092009;28;20457;-64
2022/02/16 05:33:49;;;;;;;3.43;0.90;;;7.20;99.90;;;;;;5091882;28;20446;-67
2022/02/16 05:36:16;;;;;;;4.30;0.80;;;7.20;99.90;;;;;;5091503;28;20478;-67
2022/02/16 05:38:43;;;;;;;2.90;0.70;;;7.20;99.90;;;;;;5091294;28;20502;-69
2022/02/16 05:41:10;;;;;;;1.80;0.77;;;7.20;99.90;;;;;;5091411;28;20473;-67
2022/02/16 05:43:37;;;;;;;3.10;0.87;;;7.20;99.90;;;;;;5091899;28;20442;-66
2022/02/16 05:46:04;;;;;;;2.10;0.97;;;7.20;99.90;;;;;;5091767;28;20442;-64
2022/02/16 05:48:32;;;;;;;2.77;0.97;;;7.10;99.90;;;;;;5091039;28;20534;-66
2022/02/16 05:50:59;;;;;;;3.50;0.90;;;7.20;99.90;;;;;;5091357;28;20467;-66
2022/02/16 05:53:26;;;;;;;1.73;0.80;;;7.20;99.90;;;;;;5091469;28;20458;-64
2022/02/16 05:55:52;;;;;;;3.07;1.40;;;7.20;99.90;;;;;;5087018;28;20569;-65
2022/02/16 05:58:19;;;;;;;2.00;0.80;;;7.20;99.90;;;;;;5089708;28;20537;-67
2022/02/16 06:00:46;;;;;;;2.00;0.70;;;7.20;99.90;;;;;;5090453;28;20518;-66
2022/02/16 06:03:17;;;;;;;1.93;0.70;;;7.20;99.90;;;;;;5082018;28;20500;-65
2022/02/16 06:05:45;;;;;;;1.70;0.70;;;7.20;99.90;;;;;;5081266;28;20529;-66
2022/02/16 06:08:12;;;;;;;1.70;0.70;;;7.20;99.90;;;;;;5079809;28;20542;-67
2022/02/16 06:10:39;;;;;;;2.60;0.67;;;7.20;99.90;;;;;;5081636;28;20452;-66
2022/02/16 06:13:06;;;;;;;2.37;0.70;;;7.20;99.90;;;;;;5092553;28;20529;-65
2022/02/16 06:15:33;;;;;;;2.77;0.90;;;7.20;99.90;;;;;;5093567;28;20851;-65
2022/02/16 06:17:59;;;;;;;1.50;0.80;;;7.20;99.90;;;;;;5090225;28;20473;-66
2022/02/16 06:20:26;;;;;;;3.07;0.90;;;7.20;99.90;;;;;;5082196;28;20468;-65
2022/02/16 06:22:56;;;;;;;1.77;0.80;;;7.30;99.90;;;;;;5084912;28;20453;-66
2022/02/16 06:25:23;;;;;;;2.27;0.70;;;7.20;99.90;;;;;;5089768;28;20500;-65
2022/02/16 06:27:50;;;;;;;1.93;0.80;;;7.30;99.90;;;;;;5090558;28;20443;-64
2022/02/16 06:30:18;;;;;;;2.40;0.77;;;7.30;99.90;;;;;;5091326;28;20979;-65
2022/02/16 06:32:45;;;;;;;1.97;0.83;;;7.30;99.90;;;;;;5092549;28;20448;-65
2022/02/16 06:35:13;;;;;;;1.40;0.60;;;7.30;99.90;;;;;;5092898;28;20442;-65
2022/02/16 06:37:40;;;;;;;2.07;1.00;;;7.30;99.90;;;;;;5092189;28;20478;-65
2022/02/16 06:40:10;;;;;;;2.17;0.80;;;7.40;99.90;;;;;;5093374;28;20488;-65
2022/02/16 06:42:39;;;;;;;1.80;0.80;;;7.40;99.90;;;;;;5093684;28;20446;-64
2022/02/16 06:45:07;;;;;;;2.10;0.90;;;7.40;99.90;;;;;;5093616;28;20446;-64
2022/02/16 06:47:33;;;;;;;2.33;0.80;;;7.50;99.90;;;;;;5091947;28;20540;-66
2022/02/16 06:50:00;;;;;;;3.40;1.23;;;7.50;99.90;;;;;;5092408;28;20459;-66
2022/02/16 06:52:27;;;;;;;2.00;1.10;;;7.50;99.90;;;;;;5093267;28;20470;-65
2022/02/16 06:54:54;;;;;;;3.03;0.80;;;7.50;99.90;;;;;;5093439;28;20450;-65
2022/02/16 06:57:22;;;;;;;1.73;0.80;;;7.50;99.90;;;;;;5092246;28;20577;-67
2022/02/16 06:59:49;;;;;;;2.57;1.00;;;7.60;99.90;;;;;;5093054;28;20498;-66
2022/02/16 07:02:16;;;;;;;2.00;0.70;;;7.60;99.90;;;;;;5092448;28;20507;-66
2022/02/16 07:04:43;;;;;;;2.10;0.80;;;7.60;99.90;;;;;;5092687;28;21012;-65
2022/02/16 07:07:10;;;;;;;1.70;0.80;;;7.60;99.90;;;;;;5092312;28;20446;-65
2022/02/16 07:09:37;;;;;;;1.60;0.60;;;7.60;99.90;;;;;;5093544;28;20474;-66
2022/02/16 07:12:04;;;;;;;1.77;0.70;;;7.60;99.90;;;;;;5093178;28;20473;-67
2022/02/16 07:14:32;;;;;;;1.90;0.73;;;7.60;99.90;;;;;;5092743;28;20482;-67
2022/02/16 07:16:59;;;;;;;2.27;0.70;;;7.50;99.90;;;;;;5092230;28;20482;-66
2022/02/16 07:19:27;;;;;;;2.43;0.60;;;7.50;99.90;;;;;;5092060;28;20474;-66
2022/02/16 07:21:53;;;;;;;1.70;0.80;;;7.50;99.90;;;;;;5091294;28;20541;-66
2022/02/16 07:24:21;;;;;;;1.60;0.70;;;7.40;99.90;;;;;;5091628;28;20449;-65
2022/02/16 07:26:48;;;;;;;1.50;0.60;;;7.30;99.90;;;;;;5091560;28;20450;-66
2022/02/16 07:29:15;;;;;;;1.60;0.70;;;7.30;99.90;;;;;;5094389;28;20468;-66
2022/02/16 07:31:43;;;;;;;2.30;0.90;;;7.30;99.90;;;;;;5094523;28;20541;-66
2022/02/16 07:34:10;;;;;;;2.13;1.00;;;7.30;99.90;;;;;;5094248;28;20446;-66
2022/02/16 07:36:37;;;;;;;2.13;1.00;;;7.20;99.90;;;;;;5094141;28;20478;-66
2022/02/16 07:39:04;;;;;;;4.10;1.13;;;7.20;99.90;;;;;;5093666;28;20549;-66
2022/02/16 07:41:31;;;;;;;1.80;0.70;;;7.10;99.90;;;;;;5094552;28;20536;-66
2022/02/16 07:43:58;;;;;;;1.90;0.80;;;7.00;99.90;;;;;;5095948;28;20450;-66
2022/02/16 07:46:26;;;;;;;4.60;0.90;;;7.00;99.90;;;;;;5096422;28;20499;-66
2022/02/16 07:48:54;;;;;;;2.67;0.90;;;6.90;99.90;;;;;;5095807;28;20466;-66
2022/02/16 07:51:21;;;;;;;1.80;0.70;;;6.90;99.90;;;;;;5096430;28;20533;-66
2022/02/16 07:53:48;;;;;;;2.00;1.00;;;6.80;99.90;;;;;;5095335;28;20545;-66
2022/02/16 07:56:15;;;;;;;2.73;1.57;;;6.80;99.90;;;;;;5096006;28;20581;-66
2022/02/16 07:58:42;;;;;;;2.13;1.07;;;6.80;99.90;;;;;;5095632;28;20549;-66
2022/02/16 08:01:09;;;;;;;2.27;0.80;;;6.80;99.90;;;;;;5094880;28;20480;-66
2022/02/16 08:03:36;;;;;;;2.10;0.90;;;6.80;99.90;;;;;;5094550;28;20537;-67
2022/02/16 08:06:05;;;;;;;2.40;1.03;;;6.70;99.90;;;;;;5096081;28;20449;-67
2022/02/16 08:08:32;;;;;;;2.40;1.13;;;6.80;99.90;;;;;;5094812;28;20442;-66
2022/02/16 08:10:59;;;;;;;1.80;0.73;;;6.80;99.90;;;;;;5094872;28;20533;-66
2022/02/16 08:13:26;;;;;;;3.83;1.33;;;6.80;99.90;;;;;;5094284;28;20446;-66
2022/02/16 08:15:53;;;;;;;2.03;0.97;;;6.90;99.90;;;;;;5094173;28;20456;-66
2022/02/16 08:18:20;;;;;;;2.27;1.10;;;6.90;99.90;;;;;;5093922;28;20474;-65
2022/02/16 08:20:47;;;;;;;1.73;0.90;;;6.90;99.90;;;;;;5093901;28;20457;-65
2022/02/16 08:23:15;;;;;;;1.83;0.93;;;6.90;99.90;;;;;;5093657;28;20462;-64
2022/02/16 08:25:42;;;;;;;1.93;0.97;;;6.90;99.90;;;;;;5093749;28;20445;-65
2022/02/16 08:28:09;;;;;;;2.00;1.07;;;6.90;99.90;;;;;;5094024;28;20449;-65
2022/02/16 08:30:36;;;;;;;2.10;1.40;;;6.90;99.90;;;;;;5094802;28;20473;-67
2022/02/16 08:33:03;;;;;;;5.67;1.10;;;6.80;99.90;;;;;;5094906;28;20469;-67
2022/02/16 08:35:31;;;;;;;1.90;0.90;;;6.80;99.90;;;;;;5095877;28;20533;-66
2022/02/16 08:37:57;;;;;;;2.27;0.90;;;6.80;99.90;;;;;;5093897;28;20576;-66
2022/02/16 08:40:26;;;;;;;2.73;1.00;;;6.80;99.90;;;;;;5094412;28;21112;-65
2022/02/16 08:42:53;;;;;;;1.93;1.00;;;6.70;99.90;;;;;;5094456;28;20553;-66
2022/02/16 08:45:19;;;;;;;4.00;1.23;;;6.70;99.90;;;;;;5094278;28;20446;-66
2022/02/16 08:47:47;;;;;;;2.10;1.00;;;6.70;99.90;;;;;;5094478;28;20443;-66
2022/02/16 08:50:14;;;;;;;2.70;1.00;;;6.80;99.90;;;;;;5094031;28;20470;-67
2022/02/16 08:52:40;;;;;;;1.97;1.03;;;6.80;99.90;;;;;;5094692;28;20553;-66
2022/02/16 08:55:09;;;;;;;3.23;1.17;;;6.80;99.90;;;;;;5095112;28;20571;-65
2022/02/16 08:57:39;;;;;;;1.70;0.80;;;6.80;99.90;;;;;;5096874;28;20565;-65
2022/02/16 09:00:08;;;;;;;3.47;1.10;;;6.80;99.90;;;;;;5096363;28;20519;-66
2022/02/16 09:02:35;;;;;;;2.33;1.30;;;6.80;99.90;;;;;;5096909;28;20446;-66
2022/02/16 09:05:02;;;;;;;2.20;1.10;;;6.90;99.90;;;;;;5096313;28;20533;-65
2022/02/16 09:07:30;;;;;;;3.63;1.10;;;6.80;99.90;;;;;;5095498;28;21027;-65
2022/02/16 09:09:58;;;;;;;2.20;1.40;;;6.90;99.90;;;;;;5096496;28;20849;-66
2022/02/16 09:12:25;;;;;;;2.50;1.37;;;6.90;99.90;;;;;;5096535;28;20467;-65
2022/02/16 09:14:53;;;;;;;2.23;1.00;;;6.90;99.90;;;;;;5096616;28;20450;-65
2022/02/16 09:17:21;;;;;;;2.73;1.20;;;6.80;99.90;;;;;;5096716;28;20513;-66
2022/02/16 09:19:48;;;;;;;3.10;1.30;;;6.80;99.90;;;;;;5096355;28;20528;-64
2022/02/16 09:22:14;;;;;;;2.13;1.00;;;6.80;99.90;;;;;;5095438;28;20473;-65
2022/02/16 09:24:42;;;;;;;4.70;1.53;;;6.80;99.90;;;;;;5096417;28;20939;-65
2022/02/16 09:27:09;;;;;;;2.20;1.43;;;6.90;99.90;;;;;;5096792;28;20549;-65
2022/02/16 09:29:36;;;;;;;5.07;1.40;;;6.90;99.90;;;;;;5097109;28;20488;-65
2022/02/16 09:32:05;;;;;;;2.90;1.33;;;7.00;99.90;;;;;;5097613;28;21139;-65
2022/02/16 09:34:32;;;;;;;3.23;1.50;;;7.00;99.90;;;;;;5097153;28;20908;-65
2022/02/16 09:36:59;;;;;;;1.90;1.10;;;7.10;99.90;;;;;;5096649;28;20482;-64
2022/02/16 09:39:26;;;;;;;2.27;1.20;;;7.10;99.90;;;;;;5096560;28;20474;-65
2022/02/16 09:41:55;;;;;;;1.83;1.00;;;7.10;99.90;;;;;;5096288;28;20452;-65
2022/02/16 09:44:31;;;;;;;5.40;1.40;;;7.10;99.90;;;;;;5096742;28;20442;-65
2022/02/16 09:46:58;;;;;;;2.40;1.00;;;7.20;99.90;;;;;;5095826;28;20465;-63
2022/02/16 09:49:26;;;;;;;3.00;1.10;;;7.20;99.90;;;;;;5094972;28;20478;-65
2022/02/16 09:51:53;;;;;;;2.83;1.27;;;7.30;99.90;;;;;;5095554;28;20533;-65
2022/02/16 09:54:20;;;;;;;2.77;1.20;;;7.40;99.90;;;;;;5096002;28;20458;-65
2022/02/16 09:56:47;;;;;;;2.10;1.10;;;7.40;99.90;;;;;;5095463;28;20997;-65
2022/02/16 09:59:14;;;;;;;2.40;1.13;;;7.50;99.90;;;;;;5094728;28;20548;-65
2022/02/16 10:01:54;;;;;;;2.43;1.10;;;7.50;99.90;;;;;;5094814;28;20468;-66
2022/02/16 10:04:21;;;;;;;4.80;1.17;;;7.60;99.90;;;;;;5095068;28;20446;-65
2022/02/16 10:06:49;;;;;;;4.00;1.43;;;7.70;99.90;;;;;;5094715;28;20525;-65
2022/02/16 10:09:25;;;;;;;2.00;1.00;;;7.80;99.90;;;;;;5094078;28;20458;-65
2022/02/16 10:11:54;;;;;;;2.37;0.90;;;7.80;99.90;;;;;;5094644;28;20446;-65
2022/02/16 10:14:23;;;;;;;4.33;1.10;;;8.00;99.90;;;;;;5094522;28;20928;-66
2022/02/16 10:16:50;;;;;;;1.60;0.70;;;8.10;99.90;;;;;;5094038;28;20573;-65
2022/02/16 10:19:17;;;;;;;1.60;0.70;;;8.20;99.90;;;;;;5093671;28;20472;-65
2022/02/16 10:22:07;;;;;;;2.13;0.93;;;8.30;99.90;;;;;;5094331;28;20457;-65
2022/02/16 10:24:35;;;;;;;3.43;1.20;;;8.40;99.90;;;;;;5093544;28;20533;-66
2022/02/16 10:27:02;;;;;;;2.40;0.80;;;8.40;99.90;;;;;;5093454;28;20529;-65
2022/02/16 10:29:31;;;;;;;2.83;1.17;;;8.40;99.90;;;;;;5094068;28;20466;-65
2022/02/16 10:31:59;;;;;;;3.20;1.50;;;8.50;99.90;;;;;;5094325;28;20460;-66
2022/02/16 10:35:00;;;;;;;1.90;1.00;;;8.50;99.90;;;;;;5093649;28;20525;-65
2022/02/16 10:37:36;;;;;;;3.20;0.90;;;8.60;99.90;;;;;;5030532;28;20487;-66
2022/02/16 10:40:11;;;;;;;1.77;0.80;;;8.70;99.90;;;;;;5031232;28;20476;-66
2022/02/16 10:42:39;;;;;;;1.83;0.80;;;8.70;99.90;;;;;;5065310;28;20483;-66
2022/02/16 10:45:12;;;;;;;1.97;0.70;;;8.80;99.90;;;;;;5093002;28;20546;-66
2022/02/16 10:48:02;;;;;;;3.57;1.10;;;8.90;99.90;;;;;;5092477;28;20442;-66
2022/02/16 10:50:31;;;;;;;2.00;0.90;;;9.00;99.90;;;;;;5092651;28;21034;-67
2022/02/16 10:53:01;;;;;;;1.73;0.80;;;9.20;99.90;;;;;;5086796;28;20997;-66
2022/02/16 10:55:39;;;;;;;3.67;0.90;;;9.30;99.90;;;;;;5081353;28;20486;-65
2022/02/16 10:58:07;;;;;;;1.70;0.80;;;9.40;99.90;;;;;;5079865;28;20467;-65
2022/02/16 11:00:35;;;;;;;2.60;0.80;;;9.60;99.90;;;;;;5086569;28;20462;-66
2022/02/16 11:03:03;;;;;;;1.60;0.63;;;9.70;99.90;;;;;;5091091;28;20437;-66
2022/02/16 11:05:31;;;;;;;1.90;0.77;;;9.80;99.90;;;;;;5089756;28;20442;-67
2022/02/16 11:08:00;;;;;;;1.83;0.70;;;9.90;99.90;;;;;;5090766;28;20454;-66
2022/02/16 11:10:29;;;;;;;1.60;0.70;;;9.90;99.90;;;;;;5090447;28;20469;-65
2022/02/16 11:12:58;;;;;;;2.67;0.80;;;9.90;99.90;;;;;;5091364;28;20512;-66
2022/02/16 11:15:25;;;;;;;1.83;0.70;;;10.00;99.90;;;;;;5092941;28;20814;-65
2022/02/16 11:17:52;;;;;;;1.90;0.87;;;10.20;99.90;;;;;;5088522;28;20481;-66
2022/02/16 11:20:22;;;;;;;1.77;0.67;;;10.30;99.90;;;;;;5090377;28;20501;-66
2022/02/16 11:22:51;;;;;;;1.77;0.60;;;10.40;99.90;;;;;;5085400;28;20455;-66
2022/02/16 11:25:30;;;;;;;1.73;0.70;;;10.50;99.90;;;;;;5090492;28;20442;-67
2022/02/16 11:27:59;;;;;;;2.17;1.00;;;10.60;99.90;;;;;;5090650;28;20457;-67
2022/02/16 11:30:34;;;;;;;2.57;0.67;;;10.60;99.90;;;;;;5091027;28;20474;-67
2022/02/16 11:33:19;;;;;;;1.80;0.70;;;10.70;99.90;;;;;;5085707;28;20442;-66
2022/02/16 11:35:51;;;;;;;1.50;0.50;;;10.70;99.90;;;;;;5094459;28;20438;-67
2022/02/16 11:38:22;;;;;;;1.60;0.60;;;10.80;99.90;;;;;;5095896;28;20481;-68
2022/02/16 11:40:52;;;;;;;1.97;0.70;;;10.90;99.90;;;;;;5098605;28;20536;-67
2022/02/16 11:43:22;;;;;;;2.33;0.70;;;11.00;99.90;;;;;;5078471;28;20449;-67
2022/02/16 11:46:01;;;;;;;1.90;0.63;;;11.00;99.90;;;;;;5075811;28;20458;-68
2022/02/16 11:48:52;;;;;;;1.53;0.53;;;11.00;99.90;;;;;;5079413;28;20443;-66
2022/02/16 11:51:39;;;;;;;1.80;0.60;;;11.00;99.90;;;;;;5062102;28;20455;-66
2022/02/16 11:54:44;;;;;;;1.73;0.80;;;11.10;99.90;;;;;;5095343;28;20473;-66
2022/02/16 11:57:44;;;;;;;3.93;0.70;;;11.10;99.90;;;;;;5077940;28;20445;-66
2022/02/16 12:00:25;;;;;;;1.57;0.60;;;11.20;99.90;;;;;;5087227;28;20459;-66
2022/02/16 12:03:22;;;;;;;1.60;0.60;;;11.30;99.90;;;;;;5096441;28;20467;-64
2022/02/16 12:06:01;;;;;;;1.60;0.60;;;11.30;99.90;;;;;;5063261;28;20726;-66
2022/02/16 12:08:30;;;;;;;2.27;0.70;;;11.30;99.90;;;;;;5094995;28;20437;-64
2022/02/16 12:11:04;;;;;;;1.87;0.73;;;11.30;99.90;;;;;;5096876;28;20442;-64
2022/02/16 12:13:34;;;;;;;2.50;0.60;;;11.20;99.90;;;;;;5093353;28;20538;-64
2022/02/16 12:16:06;;;;;;;1.77;0.77;;;11.20;99.90;;;;;;5101188;28;20524;-65
2022/02/16 12:18:33;;;;;;;2.20;0.60;;;11.20;99.90;;;;;;5097251;28;20484;-64
2022/02/16 12:21:01;;;;;;;1.40;0.40;;;11.00;99.90;;;;;;5098162;28;20468;-64
2022/02/16 12:23:29;;;;;;;2.53;0.60;;;10.70;99.90;;;;;;5092554;28;20521;-64
2022/02/16 12:26:09;;;;;;;2.03;0.63;;;10.50;99.90;;;;;;5087793;28;20450;-64
2022/02/16 12:28:57;;;;;;;1.80;0.70;;;10.30;99.90;;;;;;5089268;28;20450;-65
2022/02/16 12:31:26;;;;;;;1.60;0.57;;;10.30;99.90;;;;;;5092332;28;20525;-65
2022/02/16 12:33:55;;;;;;;1.70;0.80;;;10.20;99.90;;;;;;5095734;28;20438;-66
2022/02/16 12:36:22;;;;;;;2.07;0.97;;;10.10;99.90;;;;;;5095486;28;20434;-66
2022/02/16 12:38:49;;;;;;;2.80;1.90;;;10.10;99.90;;;;;;5092195;28;20541;-65
2022/02/16 12:41:21;;;;;;;3.50;0.70;;;10.10;99.90;;;;;;5095922;28;20439;-65
2022/02/16 12:43:53;;;;;;;1.50;0.67;;;10.00;99.90;;;;;;5088212;28;20454;-64
2022/02/16 12:46:23;;;;;;;2.87;0.80;;;10.00;99.90;;;;;;5096067;28;20479;-65
2022/02/16 12:48:51;;;;;;;1.90;0.60;;;10.00;99.90;;;;;;5096197;28;20553;-65
2022/02/16 12:51:26;;;;;;;2.80;0.60;;;10.00;99.90;;;;;;5096862;28;20523;-66
2022/02/16 12:53:53;;;;;;;1.50;0.50;;;10.00;99.90;;;;;;5093152;28;20537;-65
2022/02/16 12:56:20;;;;;;;2.90;0.60;;;10.00;99.90;;;;;;5095887;28;20466;-65
2022/02/16 12:58:47;;;;;;;1.40;0.50;;;10.00;99.90;;;;;;5093638;28;20866;-63
2022/02/16 13:01:15;;;;;;;1.50;0.53;;;10.00;99.90;;;;;;5089311;28;20442;-64
2022/02/16 13:03:44;;;;;;;1.50;0.53;;;10.00;99.90;;;;;;5088582;28;20477;-64